M I D A S
Marine Information and Data Acquisition System
Tripno 2307 of the Zeeleeuw from 2012-05-04 07:47:58 to 2012-05-04 12:19:55
Back to CruiseResearch ActivitiesStationsMapUnderway DataData graphs

EquipmentUnitsComments
TimeDGPSUTC
LatitudeDGPSDM.mWGS84
LongitudeDGPSDM.mWGS84
SpeedMeteo Stationm/sRelative wind speed
DirectionMeteo StationdegRelative wind direction
TemperatureMeteo Stationdeg CelciusAir temperature
PressureMeteo StationPaAtmospheric pressure
HumidityMeteo Station%Relative humidity
Missing or incorrect values are displayed as -999
Metereological data collected by the RV Zeeleeuw from 2012-05-04 07:44:51 to 2012-05-04 12:28:01
Time Latitude Longitude Speed Direction Temperature Pressure Humidity
2012-05-04 07:45 51°13.645 2°55.941 4.6 21 9.6 100520 49
2012-05-04 07:46 51°13.677 2°55.835 2.1 20 9.5 100520 47
2012-05-04 07:47 51°13.721 2°55.742 5.5 28 10.1 100520 49
2012-05-04 07:48 51°13.767 2°55.698 4.6 27 10.1 100520 48
2012-05-04 07:49 51°13.831 2°55.642 4.2 20 10.1 100520 48
2012-05-04 07:50 51°13.903 2°55.594 4.7 25 10.1 100520 49
2012-05-04 07:51 51°13.953 2°55.596 5.1 37 9.9 100520 48
2012-05-04 07:52 51°13.982 2°55.616 3.1 9 9.8 100510 46
2012-05-04 07:53 51°13.985 2°55.569 4.6 339 9.7 100510 48
2012-05-04 07:54 51°14.049 2°55.498 6.5 326 9.6 100510 47
2012-05-04 07:55 51°14.172 2°55.386 7.4 328 9.6 100510 47
2012-05-04 07:56 51°14.318 2°55.25 8.6 326 9.6 100500 47
2012-05-04 07:57 51°14.478 2°55.086 9 325 9.5 100500 48
2012-05-04 07:58 51°14.623 2°54.876 10.6 329 9.5 100510 48
2012-05-04 07:59 51°14.639 2°54.573 7.2 344 9.5 100510 47
2012-05-04 08:00 51°14.531 2°54.302 8.7 344 9.5 100510 47
2012-05-04 08:01 51°14.404 2°54.039 8.6 346 9.4 100520 47
2012-05-04 08:02 51°14.28 2°53.767 8 346 9.4 100520 47
2012-05-04 08:03 51°14.137 2°53.522 7.9 345 9.3 100520 48
2012-05-04 08:04 51°13.999 2°53.265 8 345 9.3 100510 48
2012-05-04 08:05 51°13.874 2°53.003 8.2 344 9.3 100520 48
2012-05-04 08:06 51°13.758 2°52.724 6.8 342 9.3 100510 47
2012-05-04 08:07 51°13.646 2°52.44 8.2 342 9.3 100520 47
2012-05-04 08:08 51°13.526 2°52.158 7 347 9.3 100520 48
2012-05-04 08:09 51°13.402 2°51.893 8.1 345 9.3 100520 48
2012-05-04 08:10 51°13.282 2°51.618 7.1 342 9.3 100510 47
2012-05-04 08:11 51°13.168 2°51.336 7.6 345 9.3 100520 48
2012-05-04 08:12 51°13.057 2°51.052 7.6 346 9.3 100520 48
2012-05-04 08:13 51°12.943 2°50.768 6.9 345 9.3 100510 48
2012-05-04 08:14 51°12.842 2°50.471 8.1 342 9.2 100510 49
2012-05-04 08:15 51°12.743 2°50.171 7.2 343 9.3 100510 48
2012-05-04 08:16 51°12.63 2°49.886 8.1 344 9.3 100510 47
2012-05-04 08:17 51°12.52 2°49.599 6.7 347 9.3 100510 47
2012-05-04 08:18 51°12.408 2°49.315 8.5 348 9.2 100500 47
2012-05-04 08:19 51°12.309 2°49.024 7 344 9.3 100510 48
2012-05-04 08:20 51°12.205 2°48.738 7.2 344 9.2 100510 47
2012-05-04 08:21 51°12.095 2°48.452 6.9 344 9.3 100500 48
2012-05-04 08:22 51°11.98 2°48.179 7.7 343 9.2 100500 48
2012-05-04 08:23 51°11.887 2°47.892 8 342 9.3 100500 48
2012-05-04 08:24 51°11.807 2°47.589 7.3 345 9.3 100500 47
2012-05-04 08:25 51°11.72 2°47.292 7.3 345 9.3 100500 49
2012-05-04 08:26 51°11.625 2°46.998 6.8 341 9.3 100500 47
2012-05-04 08:27 51°11.528 2°46.724 7.3 342 9.3 100510 48
2012-05-04 08:28 51°11.429 2°46.448 6.8 347 9.3 100500 48
2012-05-04 08:29 51°11.33 2°46.166 7.6 346 9.2 100500 47
2012-05-04 08:30 51°11.246 2°45.878 8.6 347 9.2 100500 47
2012-05-04 08:31 51°11.158 2°45.593 8.3 348 9.2 100500 47
2012-05-04 08:32 51°11.071 2°45.315 6.9 346 9.1 100490 48
2012-05-04 08:33 51°10.987 2°45.03 7.4 349 9.1 100490 48
2012-05-04 08:34 51°10.901 2°44.747 6.7 346 9.1 100500 47
2012-05-04 08:35 51°10.83 2°44.456 7.2 344 9.1 100490 49
2012-05-04 08:36 51°10.755 2°44.164 7.2 350 9.1 100490 49
2012-05-04 08:37 51°10.667 2°43.894 6.6 352 9.1 100500 49
2012-05-04 08:38 51°10.577 2°43.623 7.1 352 9.2 100490 49
2012-05-04 08:39 51°10.512 2°43.337 7.6 348 9.2 100490 49
2012-05-04 08:40 51°10.455 2°43.051 7.3 349 9.1 100490 48
2012-05-04 08:41 51°10.389 2°42.768 6.8 350 9.1 100490 49
2012-05-04 08:42 51°10.332 2°42.477 8.2 350 9 100490 48
2012-05-04 08:43 51°10.237 2°42.226 4.5 353 9 100500 50
2012-05-04 08:44 51°10.123 2°41.988 6 349 9 100490 50
2012-05-04 08:45 51°10.014 2°41.748 5.9 280 8.9 100490 49
2012-05-04 08:46 51°9.918 2°41.494 6.1 348 9 100490 50
2012-05-04 08:47 51°9.854 2°41.299 4.8 356 9 100500 49
2012-05-04 08:48 51°9.848 2°41.205 4.4 359 8.9 100500 50
2012-05-04 08:49 51°9.84 2°41.142 3.3 6 9 100500 49
2012-05-04 08:50 51°9.826 2°41.103 4.8 9 9 100490 47
2012-05-04 08:51 51°9.816 2°41.076 3 8 9 100500 49
2012-05-04 08:52 51°9.812 2°41.052 4.3 8 9 100490 49
2012-05-04 08:53 51°9.8 2°40.986 4.6 355 9 100490 50
2012-05-04 08:54 51°9.796 2°40.883 5 352 8.9 100490 49
2012-05-04 08:55 51°9.8 2°40.78 5.6 348 8.9 100490 48
2012-05-04 08:56 51°9.812 2°40.686 5.4 350 8.9 100490 49
2012-05-04 08:57 51°9.812 2°40.6 4.8 360 9 100490 48
2012-05-04 08:58 51°9.79 2°40.521 4.3 2 9 100500 47
2012-05-04 08:59 51°9.765 2°40.44 4 353 9 100500 48
2012-05-04 09:00 51°9.744 2°40.354 3.8 356 8.9 100500 48
2012-05-04 09:01 51°9.72 2°40.269 3.4 359 8.9 100500 48
2012-05-04 09:02 51°9.69 2°40.189 3.5 359 9 100500 48
2012-05-04 09:03 51°9.655 2°40.114 3.8 2 9 100510 48
2012-05-04 09:04 51°9.62 2°40.037 3.7 7 9 100500 50
2012-05-04 09:05 51°9.588 2°39.958 2.9 3 9 100510 49
2012-05-04 09:06 51°9.562 2°39.879 3.7 1 8.9 100500 47
2012-05-04 09:07 51°9.534 2°39.798 3.9 1 8.9 100510 48
2012-05-04 09:08 51°9.503 2°39.72 3.5 1 8.8 100510 50
2012-05-04 09:09 51°9.47 2°39.644 3.2 359 8.9 100510 48
2012-05-04 09:10 51°9.437 2°39.569 3.3 -999 8.9 100510 50
2012-05-04 09:11 51°9.406 2°39.493 3.2 357 8.9 100510 48
2012-05-04 09:12 51°9.378 2°39.414 3.7 355 8.9 100510 49
2012-05-04 09:13 51°9.357 2°39.332 2.7 349 8.9 100510 48
2012-05-04 09:14 51°9.364 2°39.246 4.4 355 8.9 100510 47
2012-05-04 09:15 51°9.393 2°39.17 3.9 347 8.9 100510 50
2012-05-04 09:16 51°9.45 2°39.122 5.4 286 8.9 100510 48
2012-05-04 09:17 51°9.523 2°39.119 5 330 9 100500 48
2012-05-04 09:18 51°9.572 2°39.165 3.9 26 9 100500 49
2012-05-04 09:19 51°9.601 2°39.242 3.1 21 9 100510 50
2012-05-04 09:20 51°9.609 2°39.331 1.4 287 9 100510 48
2012-05-04 09:21 51°9.583 2°39.411 -999 78 9 100510 49
2012-05-04 09:22 51°9.549 2°39.42 2.4 17 9 100510 48
2012-05-04 09:23 51°9.492 2°39.331 2.8 353 9 100510 48
2012-05-04 09:24 51°9.435 2°39.209 3.6 355 9 100510 49
2012-05-04 09:25 51°9.418 2°39.121 3.7 356 8.9 100510 48
2012-05-04 09:26 51°9.404 2°39.053 3.1 1 8.9 100510 50
2012-05-04 09:27 51°9.38 2°38.991 2.6 6 8.8 100510 48
2012-05-04 09:28 51°9.348 2°38.937 2.5 4 8.9 100510 48
2012-05-04 09:29 51°9.316 2°38.882 2.4 2 8.8 100510 48
2012-05-04 09:30 51°9.298 2°38.815 3.5 -999 8.8 100500 48
2012-05-04 09:31 51°9.298 2°38.743 4.3 352 8.9 100500 48
2012-05-04 09:32 51°9.305 2°38.671 4.1 353 8.9 100500 48
2012-05-04 09:33 51°9.312 2°38.597 4.3 357 8.8 100490 49
2012-05-04 09:34 51°9.321 2°38.525 4.6 351 8.8 100490 48
2012-05-04 09:35 51°9.329 2°38.454 4.2 277 8.8 100490 49
2012-05-04 09:36 51°9.336 2°38.382 4.8 359 8.9 100500 48
2012-05-04 09:37 51°9.339 2°38.31 3.8 359 8.9 100500 48
2012-05-04 09:38 51°9.342 2°38.238 4.5 355 8.8 100500 47
2012-05-04 09:39 51°9.349 2°38.166 4 358 8.9 100500 49
2012-05-04 09:40 51°9.356 2°38.092 4 358 8.9 100500 48
2012-05-04 09:41 51°9.36 2°38.019 4.5 354 8.9 100500 49
2012-05-04 09:42 51°9.363 2°37.944 4 353 8.8 100490 48
2012-05-04 09:43 51°9.367 2°37.869 3.6 353 8.9 100480 48
2012-05-04 09:44 51°9.391 2°37.805 4.2 346 8.9 100490 49
2012-05-04 09:45 51°9.436 2°37.773 5.4 340 8.9 100480 49
2012-05-04 09:46 51°9.495 2°37.781 5.1 333 8.9 100480 47
2012-05-04 09:47 51°9.559 2°37.815 4.4 325 8.9 100480 49
2012-05-04 09:48 51°9.624 2°37.887 4.7 24 9 100490 48
2012-05-04 09:49 51°9.664 2°37.967 3.4 24 9 100480 49
2012-05-04 09:50 51°9.693 2°38.045 3.6 22 9.1 100480 49
2012-05-04 09:51 51°9.727 2°38.114 4.2 321 9.1 100480 48
2012-05-04 09:52 51°9.781 2°38.107 4.1 354 9.1 100480 49
2012-05-04 09:53 51°9.763 2°38.011 4.5 355 9.1 100490 48
2012-05-04 09:54 51°9.715 2°37.782 6.9 345 9 100480 47
2012-05-04 09:55 51°9.648 2°37.523 5.7 349 9 100480 49
2012-05-04 09:56 51°9.575 2°37.277 5.9 350 8.9 100480 49
2012-05-04 09:57 51°9.506 2°37.025 6.7 347 8.9 100470 48
2012-05-04 09:58 51°9.457 2°36.762 6.8 348 8.9 100470 49
2012-05-04 09:59 51°9.405 2°36.496 6.5 347 8.9 100480 48
2012-05-04 10:00 51°9.352 2°36.24 5.9 348 8.9 100470 48
2012-05-04 10:01 51°9.285 2°35.988 5.3 343 8.9 100480 49
2012-05-04 10:02 51°9.219 2°35.733 5.5 347 8.9 100480 47
2012-05-04 10:03 51°9.167 2°35.553 3.9 360 8.9 100490 49
2012-05-04 10:04 51°9.144 2°35.471 4.5 357 8.9 100490 48
2012-05-04 10:05 51°9.176 2°35.4 4.1 339 8.9 100480 48
2012-05-04 10:06 51°9.239 2°35.38 5.1 338 8.9 100490 48
2012-05-04 10:07 51°9.306 2°35.365 4.9 340 9 100490 49
2012-05-04 10:08 51°9.36 2°35.327 5.1 349 8.9 100480 49
2012-05-04 10:09 51°9.389 2°35.269 3.8 355 8.9 100490 48
2012-05-04 10:10 51°9.39 2°35.202 3.9 2 8.9 100490 48
2012-05-04 10:11 51°9.363 2°35.141 2.3 6 8.9 100490 48
2012-05-04 10:12 51°9.333 2°35.079 3.9 9 8.9 100490 50
2012-05-04 10:13 51°9.298 2°35.021 4.1 10 8.9 100490 48
2012-05-04 10:14 51°9.259 2°34.97 4 8 8.9 100490 48
2012-05-04 10:15 51°9.22 2°34.918 3 10 9 100490 49
2012-05-04 10:16 51°9.183 2°34.862 3.2 13 9 100490 48
2012-05-04 10:17 51°9.144 2°34.802 3.4 12 9 100500 49
2012-05-04 10:18 51°9.103 2°34.755 3.1 16 9 100500 47
2012-05-04 10:19 51°9.056 2°34.724 2.7 17 9 100500 49
2012-05-04 10:20 51°8.997 2°34.728 1.3 33 9.1 100500 49
2012-05-04 10:21 51°8.936 2°34.738 0.5 34 9.1 100500 48
2012-05-04 10:22 51°8.879 2°34.733 1.6 24 9.1 100500 48
2012-05-04 10:23 51°8.834 2°34.7 2.5 15 9.2 100500 48
2012-05-04 10:24 51°8.789 2°34.663 2.5 18 9.2 100500 48
2012-05-04 10:25 51°8.743 2°34.629 3 11 9.2 100500 48
2012-05-04 10:26 51°8.708 2°34.572 3.6 10 9.1 100500 47
2012-05-04 10:27 51°8.686 2°34.506 3.2 4 9.1 100500 48
2012-05-04 10:28 51°8.682 2°34.43 4.1 360 9.1 100510 48
2012-05-04 10:29 51°8.698 2°34.356 5 352 9.1 100500 48
2012-05-04 10:30 51°8.738 2°34.289 4.9 347 9 100500 49
2012-05-04 10:31 51°8.799 2°34.247 0.7 337 9 100500 48
2012-05-04 10:32 51°8.866 2°34.263 -999 329 9 100510 49
2012-05-04 10:33 51°8.92 2°34.313 0.5 316 9.1 100510 49
2012-05-04 10:34 51°8.957 2°34.377 0.1 23 9.1 100510 48
2012-05-04 10:35 51°8.983 2°34.45 -999 248 9.1 100510 49
2012-05-04 10:36 51°9.001 2°34.525 -999 259 9.2 100520 49
2012-05-04 10:37 51°8.987 2°34.605 -999 23 9.2 100520 49
2012-05-04 10:38 51°8.955 2°34.606 -999 24 9.2 100520 49
2012-05-04 10:39 51°8.911 2°34.573 -999 23 9.2 100520 48
2012-05-04 10:40 51°8.844 2°34.574 -999 22 9.2 100520 49
2012-05-04 10:41 51°8.777 2°34.559 -999 17 9.3 100520 49
2012-05-04 10:42 51°8.728 2°34.503 -999 10 9.2 100520 47
2012-05-04 10:43 51°8.682 2°34.437 -999 9 9.2 100530 48
2012-05-04 10:44 51°8.649 2°34.353 0.2 7 9.1 100530 48
2012-05-04 10:45 51°8.606 2°34.287 -999 7 9.1 100530 49
2012-05-04 10:46 51°8.56 2°34.232 -999 8 9.1 100530 48
2012-05-04 10:47 51°8.519 2°34.175 -999 2 9 100530 48
2012-05-04 10:48 51°8.483 2°34.11 -999 4 9 100530 49
2012-05-04 10:49 51°8.452 2°34.039 -999 6 9 100530 49
2012-05-04 10:50 51°8.421 2°33.967 -999 7 9 100540 48
2012-05-04 10:51 51°8.388 2°33.897 -999 2 9 100530 49
2012-05-04 10:52 51°8.362 2°33.823 -999 357 8.9 100540 48
2012-05-04 10:53 51°8.34 2°33.742 -999 2 8.9 100530 49
2012-05-04 10:54 51°8.322 2°33.659 0.1 358 9 100540 49
2012-05-04 10:55 51°8.316 2°33.569 0.1 358 8.9 100530 48
2012-05-04 10:56 51°8.342 2°33.484 2.9 348 8.9 100530 48
2012-05-04 10:57 51°8.395 2°33.417 2.5 339 8.9 100540 50
2012-05-04 10:58 51°8.465 2°33.371 0.5 338 8.9 100530 48
2012-05-04 10:59 51°8.541 2°33.339 0.3 342 9 100530 49
2012-05-04 11:00 51°8.624 2°33.326 0.1 334 9 100530 49
2012-05-04 11:01 51°8.702 2°33.359 -999 323 9 100530 49
2012-05-04 11:02 51°8.759 2°33.455 -999 23 9 100530 49
2012-05-04 11:03 51°8.777 2°33.578 -999 249 9 100520 49
2012-05-04 11:04 51°8.777 2°33.713 -999 249 9 100530 49
2012-05-04 11:05 51°8.782 2°33.845 -999 249 9.1 100520 49
2012-05-04 11:06 51°8.784 2°33.962 -999 255 9.1 100520 48
2012-05-04 11:07 51°8.784 2°34.063 -999 255 9.2 100520 49
2012-05-04 11:08 51°8.779 2°34.164 -999 257 9.2 100520 49
2012-05-04 11:09 51°8.765 2°34.255 -999 265 9.2 100530 49
2012-05-04 11:10 51°8.759 2°34.331 -999 268 9.2 100530 49
2012-05-04 11:11 51°8.761 2°34.401 -999 264 9.2 100530 48
2012-05-04 11:12 51°8.758 2°34.495 -999 247 9.2 100520 49
2012-05-04 11:13 51°8.772 2°34.651 1.1 26 9.2 100520 49
2012-05-04 11:14 51°8.82 2°34.903 5.8 319 9.1 100520 47
2012-05-04 11:15 51°8.915 2°35.228 7.4 319 9.2 100510 48
2012-05-04 11:16 51°8.995 2°35.579 6.7 319 9.1 100510 49
2012-05-04 11:17 51°9.062 2°35.929 7 321 9.1 100510 48
2012-05-04 11:18 51°9.148 2°36.263 7.8 319 9.1 100510 49
2012-05-04 11:19 51°9.232 2°36.608 5.9 321 9.2 100510 49
2012-05-04 11:20 51°9.3 2°36.955 5.4 320 9.2 100510 48
2012-05-04 11:21 51°9.369 2°37.294 6.6 323 9.1 100510 49
2012-05-04 11:22 51°9.44 2°37.637 0.1 320 9.2 100500 48
2012-05-04 11:23 51°9.504 2°37.98 -999 319 9.2 100500 48
2012-05-04 11:24 51°9.573 2°38.321 -999 317 9.2 100500 48
2012-05-04 11:25 51°9.656 2°38.653 -999 318 9.2 100500 48
2012-05-04 11:26 51°9.723 2°39 -999 318 9.2 100500 48
2012-05-04 11:27 51°9.78 2°39.341 -999 319 9.2 100500 48
2012-05-04 11:28 51°9.852 2°39.68 -999 319 9.2 100500 48
2012-05-04 11:29 51°9.922 2°40.026 -999 318 9.2 100500 49
2012-05-04 11:30 51°9.991 2°40.362 -999 318 9.2 100500 47
2012-05-04 11:31 51°10.074 2°40.701 -999 319 9.2 100500 48
2012-05-04 11:32 51°10.135 2°41.038 -999 320 9.2 100500 49
2012-05-04 11:33 51°10.204 2°41.375 -999 317 9.2 100500 49
2012-05-04 11:34 51°10.271 2°41.717 -999 318 9.2 100500 49
2012-05-04 11:35 51°10.35 2°42.045 -999 321 9.2 100490 49
2012-05-04 11:36 51°10.452 2°42.359 -999 321 9.2 100500 48
2012-05-04 11:37 51°10.534 2°42.678 -999 318 9.2 100490 49
2012-05-04 11:38 51°10.616 2°43.009 -999 320 9.2 100490 47
2012-05-04 11:39 51°10.714 2°43.315 -999 318 9.2 100500 49
2012-05-04 11:40 51°10.793 2°43.641 -999 319 9.2 100500 49
2012-05-04 11:41 51°10.874 2°43.971 -999 318 9.2 100500 49
2012-05-04 11:42 51°10.961 2°44.293 -999 321 9.1 100500 49
2012-05-04 11:43 51°11.072 2°44.595 -999 321 9.1 100500 49
2012-05-04 11:44 51°11.179 2°44.894 -999 322 9.1 100500 49
2012-05-04 11:45 51°11.282 2°45.204 -999 321 9.2 100500 49
2012-05-04 11:46 51°11.378 2°45.527 -999 322 9.2 100500 49
2012-05-04 11:47 51°11.489 2°45.831 -999 322 9.2 100500 49
2012-05-04 11:48 51°11.596 2°46.134 -999 321 9.1 100500 49
2012-05-04 11:49 51°11.69 2°46.458 -999 320 9.2 100500 49
2012-05-04 11:50 51°11.8 2°46.752 -999 320 9.1 100500 49
2012-05-04 11:51 51°11.888 2°47.067 -999 321 9.1 100510 49
2012-05-04 11:52 51°11.962 2°47.394 -999 318 9.1 100500 49
2012-05-04 11:53 51°12.049 2°47.721 -999 318 9.1 100500 49
2012-05-04 11:54 51°12.15 2°48.032 -999 320 9.1 100500 49
2012-05-04 11:55 51°12.239 2°48.345 -999 320 9.1 100510 49
2012-05-04 11:56 51°12.327 2°48.668 -999 321 9.1 100510 49
2012-05-04 11:57 51°12.406 2°48.997 -999 319 9.1 100500 49
2012-05-04 11:58 51°12.507 2°49.316 -999 324 9.1 100510 49
2012-05-04 11:59 51°12.611 2°49.62 -999 321 9 100510 49
2012-05-04 12:00 51°12.724 2°49.924 -999 321 9.1 100510 49
2012-05-04 12:01 51°12.842 2°50.222 -999 321 9.1 100510 49
2012-05-04 12:02 51°12.94 2°50.539 -999 321 9.1 100500 49
2012-05-04 12:03 51°13.037 2°50.862 -999 320 9.1 100500 49
2012-05-04 12:04 51°13.143 2°51.162 -999 321 9.1 100500 49
2012-05-04 12:05 51°13.265 2°51.464 -999 320 9.1 100500 49
2012-05-04 12:06 51°13.378 2°51.76 -999 319 9.1 100500 49
2012-05-04 12:07 51°13.492 2°52.068 -999 319 9.1 100500 49
2012-05-04 12:08 51°13.605 2°52.367 -999 319 9.1 100500 49
2012-05-04 12:09 51°13.725 2°52.676 -999 317 9.1 100500 49
2012-05-04 12:10 51°13.838 2°52.982 -999 321 9.1 100500 49
2012-05-04 12:11 51°13.956 2°53.294 -999 320 9.1 100500 49
2012-05-04 12:12 51°14.076 2°53.59 -999 320 9.1 100500 49
2012-05-04 12:13 51°14.206 2°53.882 -999 322 9.1 100490 49
2012-05-04 12:14 51°14.349 2°54.166 -999 321 9.1 100500 49
2012-05-04 12:15 51°14.486 2°54.444 -999 322 9.1 100490 49
2012-05-04 12:16 51°14.62 2°54.739 -999 23 9.1 100500 49
2012-05-04 12:17 51°14.537 2°54.995 -999 316 9.1 100510 49
2012-05-04 12:18 51°14.366 2°55.181 -999 316 9.1 100520 49
2012-05-04 12:19 51°14.218 2°55.33 -999 23 9.2 100520 49
2012-05-04 12:20 51°14.077 2°55.444 -999 23 9.2 100510 49
2012-05-04 12:21 51°13.954 2°55.535 -999 23 9.3 100520 49
2012-05-04 12:22 51°13.845 2°55.616 -999 23 9.4 100520 49
2012-05-04 12:23 51°13.759 2°55.712 -999 24 9.5 100520 50
2012-05-04 12:24 51°13.696 2°55.822 -999 251 9.6 100510 49
2012-05-04 12:25 51°13.653 2°55.931 -999 256 9.7 100520 50
2012-05-04 12:26 51°13.637 2°56.008 -999 267 9.8 100510 49
2012-05-04 12:27 51°13.636 2°56.018 -999 24 9.7 100520 49